createdAt,value
2023-04-26T00:00:30.971Z,10.70
2023-04-26T00:03:13.743Z,10.71
2023-04-26T00:05:42.952Z,10.69
2023-04-26T00:08:11.363Z,10.68
2023-04-26T00:10:40.973Z,10.67
2023-04-26T00:13:09.255Z,10.69
2023-04-26T00:15:37.740Z,10.70
2023-04-26T00:18:06.579Z,10.70
2023-04-26T00:20:35.228Z,10.70
2023-04-26T00:23:03.716Z,10.74
2023-04-26T00:25:32.017Z,10.77
2023-04-26T00:28:00.395Z,10.82
2023-04-26T00:30:29.370Z,10.84
2023-04-26T00:32:57.800Z,10.85
2023-04-26T00:35:26.162Z,10.86
2023-04-26T00:37:54.737Z,10.85
2023-04-26T00:40:23.240Z,10.86
2023-04-26T00:43:00.609Z,10.86
2023-04-26T00:45:29.446Z,10.88
2023-04-26T00:48:02.747Z,10.88
2023-04-26T00:50:32.935Z,10.93
2023-04-26T00:53:03.036Z,10.96
2023-04-26T00:55:31.780Z,11.00
2023-04-26T00:58:00.448Z,11.05
2023-04-26T01:00:29.853Z,11.09
2023-04-26T01:02:59.351Z,11.12
2023-04-26T01:05:27.945Z,11.18
2023-04-26T01:07:56.657Z,11.22
2023-04-26T01:10:25.953Z,11.27
2023-04-26T01:12:55.068Z,11.32
2023-04-26T01:15:23.839Z,11.38
2023-04-26T01:17:52.664Z,11.42
2023-04-26T01:20:21.329Z,11.44
2023-04-26T01:22:49.708Z,11.46
2023-04-26T01:25:19.383Z,11.48
2023-04-26T01:27:47.705Z,11.51
2023-04-26T01:30:16.197Z,11.53
2023-04-26T01:32:44.601Z,11.56
2023-04-26T01:35:13.061Z,11.59
2023-04-26T01:37:41.649Z,11.61
2023-04-26T01:40:11.468Z,11.63
2023-04-26T01:42:39.957Z,11.63
2023-04-26T01:45:08.636Z,11.64
2023-04-26T01:47:58.266Z,11.62
2023-04-26T01:50:27.220Z,11.61
2023-04-26T01:52:55.594Z,11.62
2023-04-26T01:55:24.082Z,11.62
2023-04-26T01:57:52.496Z,11.63
2023-04-26T02:00:20.751Z,11.62
2023-04-26T02:02:51.108Z,11.60
2023-04-26T02:05:19.757Z,11.59
2023-04-26T02:07:48.378Z,11.58
2023-04-26T02:10:16.947Z,11.56
2023-04-26T02:12:46.561Z,11.57
2023-04-26T02:15:15.406Z,11.58
2023-04-26T02:17:44.173Z,11.57
2023-04-26T02:20:13.072Z,11.58
2023-04-26T02:22:41.541Z,11.60
2023-04-26T02:25:10.224Z,11.62
2023-04-26T02:27:38.922Z,11.65
2023-04-26T02:30:08.260Z,11.68
2023-04-26T02:32:36.973Z,11.71
2023-04-26T02:35:05.963Z,11.76
2023-04-26T02:37:34.707Z,11.79
2023-04-26T02:40:05.618Z,11.81
2023-04-26T02:42:33.827Z,11.83
2023-04-26T02:45:02.131Z,11.84
2023-04-26T02:47:31.464Z,11.80
2023-04-26T02:50:00.205Z,11.78
2023-04-26T02:52:28.695Z,11.80
2023-04-26T02:54:56.874Z,11.81
2023-04-26T02:57:25.075Z,11.80
2023-04-26T02:59:53.540Z,11.83
2023-04-26T03:02:22.467Z,11.86
2023-04-26T03:04:51.551Z,11.90
2023-04-26T03:07:19.920Z,11.92
2023-04-26T03:09:48.408Z,11.91
2023-04-26T03:12:18.840Z,11.90
2023-04-26T03:14:47.635Z,11.88
2023-04-26T03:17:15.918Z,11.89
2023-04-26T03:19:44.364Z,11.89
2023-04-26T03:22:16.486Z,11.89
2023-04-26T03:24:45.986Z,11.89
2023-04-26T03:27:15.099Z,11.91
2023-04-26T03:29:44.332Z,11.89
2023-04-26T03:32:13.028Z,11.87
2023-04-26T03:34:41.772Z,11.88
2023-04-26T03:37:10.479Z,11.90
2023-04-26T03:39:40.285Z,11.93
2023-04-26T03:42:09.180Z,11.95
2023-04-26T03:44:38.386Z,11.88
2023-04-26T03:47:07.224Z,11.76
2023-04-26T03:49:35.767Z,11.65
2023-04-26T03:52:04.355Z,11.50
2023-04-26T03:54:32.738Z,11.37
2023-04-26T03:57:01.945Z,11.24
2023-04-26T03:59:31.039Z,11.11
2023-04-26T04:01:59.634Z,10.96
2023-04-26T04:04:28.356Z,10.79
2023-04-26T04:06:56.926Z,10.66
2023-04-26T04:09:25.436Z,10.57
2023-04-26T04:11:55.726Z,10.45
2023-04-26T04:14:24.517Z,10.33
2023-04-26T04:16:52.829Z,10.25
2023-04-26T04:19:26.457Z,10.23
2023-04-26T04:21:57.352Z,10.17
2023-04-26T04:24:26.558Z,10.10
2023-04-26T04:26:56.277Z,9.96
2023-04-26T04:29:25.142Z,9.84
2023-04-26T04:31:53.449Z,9.68
2023-04-26T04:34:24.026Z,9.52
2023-04-26T04:36:52.463Z,9.31
2023-04-26T04:39:21.355Z,9.14
2023-04-26T04:41:50.161Z,9.01
2023-04-26T04:44:20.889Z,8.90
2023-04-26T04:46:49.614Z,8.83
2023-04-26T04:49:19.047Z,8.75
2023-04-26T04:51:47.224Z,8.69
2023-04-26T04:54:18.178Z,8.60
2023-04-26T04:56:48.559Z,8.52
2023-04-26T04:59:17.724Z,8.48
2023-04-26T05:01:46.178Z,8.48
2023-04-26T05:04:16.435Z,8.45
2023-04-26T05:06:45.676Z,8.42
2023-04-26T05:09:14.151Z,8.37
2023-04-26T05:11:42.953Z,8.34
2023-04-26T05:14:14.148Z,8.29
2023-04-26T05:16:43.362Z,8.26
2023-04-26T05:19:13.534Z,8.30
2023-04-26T05:21:42.424Z,8.40
2023-04-26T05:24:11.424Z,8.42
2023-04-26T05:26:40.639Z,8.46
2023-04-26T05:29:22.112Z,8.51
2023-04-26T05:32:02.923Z,8.55
2023-04-26T05:34:44.486Z,8.55
2023-04-26T05:37:17.451Z,8.54
2023-04-26T05:39:46.044Z,8.61
2023-04-26T05:42:16.352Z,8.69
2023-04-26T05:44:46.699Z,8.70
2023-04-26T05:47:15.282Z,8.71
2023-04-26T05:49:43.771Z,8.75
2023-04-26T05:52:12.990Z,8.73
2023-04-26T05:54:41.565Z,8.71
2023-04-26T05:57:09.796Z,8.75
2023-04-26T05:59:40.342Z,8.83
2023-04-26T06:02:08.864Z,8.90
2023-04-26T06:04:37.788Z,8.87
2023-04-26T06:07:10.049Z,8.86
2023-04-26T06:09:38.418Z,8.83
2023-04-26T06:12:07.318Z,8.82
2023-04-26T06:14:37.233Z,8.83
2023-04-26T06:17:09.857Z,8.87
2023-04-26T06:19:38.360Z,8.95
2023-04-26T06:22:06.895Z,8.98
2023-04-26T06:24:35.481Z,9.02
2023-04-26T06:27:04.250Z,9.04
2023-04-26T06:29:33.878Z,9.03
2023-04-26T06:32:02.586Z,9.01
2023-04-26T06:34:31.783Z,8.99
2023-04-26T06:37:00.790Z,8.95
2023-04-26T06:39:29.527Z,8.90
2023-04-26T06:41:58.099Z,8.84
2023-04-26T06:44:29.621Z,8.81
2023-04-26T06:47:03.844Z,8.81
2023-04-26T06:49:33.549Z,8.83
2023-04-26T06:52:01.832Z,8.85
2023-04-26T06:54:31.426Z,8.88
2023-04-26T06:57:01.344Z,8.87
2023-04-26T06:59:30.160Z,8.88
2023-04-26T07:01:58.855Z,8.89
2023-04-26T07:04:27.684Z,8.90
2023-04-26T07:06:58.080Z,8.89
2023-04-26T07:09:26.365Z,8.90
2023-04-26T07:11:54.539Z,8.96
2023-04-26T07:14:23.678Z,9.03
2023-04-26T07:16:52.061Z,9.02
2023-04-26T07:19:20.816Z,8.97
2023-04-26T07:21:49.206Z,8.93
2023-04-26T07:24:17.897Z,8.93
2023-04-26T07:26:46.745Z,8.91
2023-04-26T07:29:15.381Z,8.84
2023-04-26T07:31:44.065Z,8.83
2023-04-26T07:34:12.261Z,8.89
2023-04-26T07:36:40.838Z,8.91
2023-04-26T07:39:11.073Z,8.93
2023-04-26T07:41:41.050Z,8.95
2023-04-26T07:44:11.592Z,8.96
2023-04-26T07:46:40.005Z,8.96
2023-04-26T07:49:09.311Z,8.89
2023-04-26T07:51:41.484Z,8.89
2023-04-26T07:54:10.585Z,8.90
2023-04-26T07:56:39.170Z,8.89
2023-04-26T07:59:07.966Z,8.88
2023-04-26T08:01:36.349Z,8.86
2023-04-26T08:04:05.807Z,8.91
2023-04-26T08:06:34.379Z,8.94
2023-04-26T08:09:03.452Z,9.00
2023-04-26T08:11:31.894Z,9.04
2023-04-26T08:14:03.491Z,8.94
2023-04-26T08:16:32.635Z,8.90
2023-04-26T08:19:03.204Z,8.90
2023-04-26T08:21:32.026Z,8.93
2023-04-26T08:24:00.623Z,8.93
2023-04-26T08:26:29.105Z,8.93
2023-04-26T08:28:57.997Z,8.89
2023-04-26T08:31:27.322Z,8.88
2023-04-26T08:33:55.887Z,8.80
2023-04-26T08:36:24.165Z,8.74
2023-04-26T08:38:52.433Z,8.73
2023-04-26T08:41:24.951Z,8.79
2023-04-26T08:43:56.403Z,8.92
2023-04-26T08:46:27.802Z,8.96
2023-04-26T08:49:13.716Z,8.96
2023-04-26T08:51:44.457Z,8.96
2023-04-26T08:54:13.333Z,8.93
2023-04-26T08:56:44.310Z,8.88
2023-04-26T08:59:14.958Z,8.94
2023-04-26T09:01:44.638Z,8.98
2023-04-26T09:04:13.553Z,9.02
2023-04-26T09:06:42.440Z,9.08
2023-04-26T09:09:13.793Z,9.13
2023-04-26T09:11:59.995Z,9.16
2023-04-26T09:14:28.272Z,9.18
2023-04-26T09:16:57.378Z,9.13
2023-04-26T09:19:37.218Z,9.08
2023-04-26T09:22:06.847Z,9.06
2023-04-26T09:24:53.118Z,9.02
2023-04-26T09:27:22.213Z,9.02
2023-04-26T09:30:06.158Z,8.97
2023-04-26T09:33:05.094Z,8.97
2023-04-26T09:35:38.818Z,8.95
2023-04-26T09:38:13.585Z,8.96
2023-04-26T09:40:47.392Z,8.98
2023-04-26T09:43:21.246Z,9.12
2023-04-26T09:45:58.793Z,9.21
2023-04-26T09:48:32.169Z,9.19
2023-04-26T09:51:11.436Z,9.11
2023-04-26T09:53:42.849Z,9.05
2023-04-26T09:56:17.637Z,9.05
2023-04-26T09:58:58.313Z,9.04
2023-04-26T10:01:30.225Z,9.06
2023-04-26T10:04:02.348Z,9.07
2023-04-26T10:06:30.692Z,9.10
2023-04-26T10:08:59.581Z,9.09
2023-04-26T10:11:29.083Z,9.01
2023-04-26T10:13:57.853Z,8.98
2023-04-26T10:16:26.412Z,8.95
2023-04-26T10:18:55.118Z,9.02
2023-04-26T10:21:31.865Z,9.09
2023-04-26T10:24:00.606Z,9.14
2023-04-26T10:26:50.613Z,9.25
2023-04-26T10:29:21.177Z,9.30
2023-04-26T10:32:02.402Z,9.22
2023-04-26T10:34:32.863Z,9.18
2023-04-26T10:37:17.819Z,9.19
2023-04-26T10:39:47.069Z,9.25
2023-04-26T10:42:28.666Z,9.28
2023-04-26T10:44:58.876Z,9.45
2023-04-26T10:47:32.003Z,9.54
2023-04-26T10:50:12.083Z,9.52
2023-04-26T10:53:04.076Z,9.46
2023-04-26T10:55:51.692Z,9.46
2023-04-26T10:58:34.639Z,9.49
2023-04-26T11:01:20.884Z,9.55
2023-04-26T11:03:59.186Z,9.50
2023-04-26T11:06:51.294Z,9.55
2023-04-26T11:09:39.643Z,9.65
2023-04-26T11:12:12.744Z,9.74
2023-04-26T11:14:46.444Z,9.84
2023-04-26T11:17:15.209Z,9.91
2023-04-26T11:19:46.916Z,10.04
2023-04-26T11:22:15.347Z,10.22
2023-04-26T11:24:43.627Z,10.31
2023-04-26T11:27:12.638Z,10.33
2023-04-26T11:29:41.425Z,10.38
2023-04-26T11:32:11.133Z,10.48
2023-04-26T11:34:39.723Z,10.36
2023-04-26T11:37:08.464Z,10.23
2023-04-26T11:39:37.483Z,10.27
2023-04-26T11:42:09.491Z,10.33
2023-04-26T11:44:39.155Z,10.37
2023-04-26T11:47:09.116Z,10.42
2023-04-26T11:49:40.876Z,10.37
2023-04-26T11:52:10.183Z,10.28
2023-04-26T11:54:38.733Z,10.14
2023-04-26T11:57:20.838Z,10.03
2023-04-26T11:59:49.264Z,9.96
2023-04-26T12:02:17.708Z,9.93
2023-04-26T12:04:46.813Z,10.03
2023-04-26T12:07:19.742Z,10.25
2023-04-26T12:09:47.990Z,10.36
2023-04-26T12:12:16.504Z,10.41
2023-04-26T12:14:47.554Z,10.44
2023-04-26T12:17:16.820Z,10.47
2023-04-26T12:19:45.028Z,10.48
2023-04-26T12:22:22.119Z,10.49
2023-04-26T12:24:50.394Z,10.59
2023-04-26T12:27:22.119Z,10.61
2023-04-26T12:29:50.848Z,10.72
2023-04-26T12:32:20.772Z,10.89
2023-04-26T12:34:51.509Z,10.84
2023-04-26T12:37:19.991Z,10.73
2023-04-26T12:39:48.272Z,10.68
2023-04-26T12:42:16.969Z,10.67
2023-04-26T12:44:45.356Z,10.71
2023-04-26T12:47:14.349Z,10.92
2023-04-26T12:49:42.737Z,11.05
2023-04-26T12:52:11.322Z,11.10
2023-04-26T12:54:39.538Z,11.19
2023-04-26T12:57:08.396Z,11.16
2023-04-26T12:59:36.887Z,11.08
2023-04-26T13:02:05.070Z,11.03
2023-04-26T13:04:36.225Z,11.05
2023-04-26T13:07:06.746Z,11.11
2023-04-26T13:09:35.341Z,11.14
2023-04-26T13:12:04.216Z,11.04
2023-04-26T13:14:32.424Z,10.98
2023-04-26T13:17:01.132Z,10.90
2023-04-26T13:19:29.793Z,10.85
2023-04-26T13:21:57.983Z,10.83
2023-04-26T13:24:26.565Z,10.80
2023-04-26T13:26:55.665Z,10.79
2023-04-26T13:29:24.324Z,10.84
2023-04-26T13:31:52.954Z,10.85
2023-04-26T13:34:22.159Z,10.90
2023-04-26T13:36:50.880Z,10.95
2023-04-26T13:39:19.838Z,10.99
2023-04-26T13:41:48.128Z,11.12
2023-04-26T13:44:16.611Z,11.23
2023-04-26T13:46:45.272Z,11.36
2023-04-26T13:49:14.809Z,11.42
2023-04-26T13:51:43.499Z,11.40
2023-04-26T13:54:12.104Z,11.35
2023-04-26T13:56:40.781Z,11.14
2023-04-26T13:59:08.957Z,10.99
2023-04-26T14:01:37.390Z,10.86
2023-04-26T14:04:06.449Z,10.74
2023-04-26T14:06:37.387Z,10.73
2023-04-26T14:09:05.851Z,10.76
2023-04-26T14:11:34.176Z,10.82
2023-04-26T14:14:02.453Z,10.91
2023-04-26T14:16:31.084Z,10.96
2023-04-26T14:18:59.932Z,10.93
2023-04-26T14:21:28.324Z,10.88
2023-04-26T14:23:56.801Z,10.80
2023-04-26T14:26:26.613Z,10.71
2023-04-26T14:28:57.047Z,10.65
2023-04-26T14:31:26.604Z,10.62
2023-04-26T14:33:56.578Z,10.63
2023-04-26T14:36:24.858Z,10.62
2023-04-26T14:38:53.247Z,10.72
2023-04-26T14:41:21.938Z,10.81
2023-04-26T14:43:51.038Z,10.81
2023-04-26T14:46:19.913Z,10.88
2023-04-26T14:48:48.428Z,10.98
2023-04-26T14:51:17.009Z,11.06
2023-04-26T14:53:45.312Z,11.16
2023-04-26T14:56:13.887Z,11.19
2023-04-26T14:58:42.172Z,11.20
2023-04-26T15:01:10.832Z,11.16
2023-04-26T15:03:40.617Z,11.02
2023-04-26T15:06:10.117Z,10.96
2023-04-26T15:08:38.412Z,10.89
2023-04-26T15:11:06.744Z,10.82
2023-04-26T15:13:35.024Z,10.67
2023-04-26T15:16:08.156Z,10.54
2023-04-26T15:18:36.736Z,10.52
2023-04-26T15:21:05.000Z,10.64
2023-04-26T15:23:33.290Z,10.85
2023-04-26T15:26:04.009Z,10.98
2023-04-26T15:28:33.207Z,10.94
2023-04-26T15:31:03.483Z,10.78
2023-04-26T15:33:31.923Z,10.60
2023-04-26T15:36:00.315Z,10.46
2023-04-26T15:38:28.500Z,10.34
2023-04-26T15:40:56.904Z,10.25
2023-04-26T15:43:30.910Z,10.17
2023-04-26T15:45:59.424Z,9.97
2023-04-26T15:48:27.966Z,9.65
2023-04-26T15:50:57.025Z,9.42
2023-04-26T15:53:25.862Z,9.26
2023-04-26T15:55:54.365Z,9.17
2023-04-26T15:58:22.634Z,9.10
2023-04-26T16:00:50.911Z,9.08
2023-04-26T16:03:19.716Z,9.02
2023-04-26T16:05:48.296Z,8.96
2023-04-26T16:08:24.554Z,8.89
2023-04-26T16:11:05.014Z,8.85
2023-04-26T16:13:33.917Z,8.78
2023-04-26T16:16:06.380Z,8.68
2023-04-26T16:18:35.573Z,8.69
2023-04-26T16:21:04.874Z,8.69
2023-04-26T16:23:36.361Z,8.76
2023-04-26T16:26:06.169Z,8.81
2023-04-26T16:28:34.967Z,8.87
2023-04-26T16:31:03.969Z,8.89
2023-04-26T16:33:32.455Z,8.95
2023-04-26T16:36:04.057Z,9.02
2023-04-26T16:38:32.496Z,9.05
2023-04-26T16:41:01.889Z,9.02
2023-04-26T16:43:32.033Z,8.93
2023-04-26T16:46:05.877Z,8.87
2023-04-26T16:48:36.630Z,8.75
2023-04-26T16:51:07.647Z,8.64
2023-04-26T16:53:38.169Z,8.52
2023-04-26T16:56:07.411Z,8.47
2023-04-26T16:58:35.844Z,8.44
2023-04-26T17:01:05.041Z,8.44
2023-04-26T17:03:36.459Z,8.41
2023-04-26T17:06:06.932Z,8.37
2023-04-26T17:08:35.314Z,8.38
2023-04-26T17:11:03.803Z,8.36
2023-04-26T17:13:33.524Z,8.34
2023-04-26T17:16:02.436Z,8.34
2023-04-26T17:18:31.177Z,8.32
2023-04-26T17:21:00.144Z,8.26
2023-04-26T17:23:31.010Z,8.21
2023-04-26T17:25:59.981Z,8.19
2023-04-26T17:28:31.697Z,8.20
2023-04-26T17:31:00.815Z,8.20
2023-04-26T17:33:30.210Z,8.20
2023-04-26T17:35:58.948Z,8.21
2023-04-26T17:38:27.497Z,8.23
2023-04-26T17:40:56.190Z,8.26
2023-04-26T17:43:24.587Z,8.25
2023-04-26T17:45:53.517Z,8.25
2023-04-26T17:48:30.183Z,8.28
2023-04-26T17:50:59.374Z,8.29
2023-04-26T17:53:28.130Z,8.30
2023-04-26T17:55:56.414Z,8.28
2023-04-26T17:58:24.598Z,8.25
2023-04-26T18:00:53.868Z,8.25
2023-04-26T18:03:22.625Z,8.23
2023-04-26T18:05:51.283Z,8.22
2023-04-26T18:08:20.726Z,8.22
2023-04-26T18:10:50.606Z,8.18
2023-04-26T18:13:19.347Z,8.11
2023-04-26T18:15:48.410Z,8.04
2023-04-26T18:18:16.783Z,8.01
2023-04-26T18:20:46.615Z,8.01
2023-04-26T18:23:14.886Z,8.00
2023-04-26T18:25:43.481Z,8.03
2023-04-26T18:28:12.890Z,8.04
2023-04-26T18:30:42.008Z,8.03
2023-04-26T18:33:10.587Z,8.04
2023-04-26T18:35:39.061Z,8.03
2023-04-26T18:38:07.255Z,8.01
2023-04-26T18:40:35.945Z,7.95
2023-04-26T18:43:07.298Z,7.85
2023-04-26T18:45:35.982Z,7.84
2023-04-26T18:48:10.563Z,7.81
2023-04-26T18:50:38.784Z,7.83
2023-04-26T18:53:07.270Z,7.84
2023-04-26T18:55:35.450Z,7.81
2023-04-26T18:58:03.736Z,7.78
2023-04-26T19:00:32.696Z,7.75
2023-04-26T19:03:01.100Z,7.77
2023-04-26T19:05:29.720Z,7.77
2023-04-26T19:07:58.189Z,7.75
2023-04-26T19:10:26.986Z,7.72
2023-04-26T19:12:55.196Z,7.67
2023-04-26T19:15:23.449Z,7.63
2023-04-26T19:17:54.616Z,7.62
2023-04-26T19:20:24.005Z,7.60
2023-04-26T19:22:52.697Z,7.56
2023-04-26T19:25:23.441Z,7.53
2023-04-26T19:27:52.562Z,7.46
2023-04-26T19:30:24.810Z,7.38
2023-04-26T19:32:57.442Z,7.35
2023-04-26T19:35:28.949Z,7.32
2023-04-26T19:38:00.005Z,7.32
2023-04-26T19:40:28.582Z,7.27
2023-04-26T19:42:57.592Z,7.25
2023-04-26T19:45:29.548Z,7.25
2023-04-26T19:47:57.971Z,7.23
2023-04-26T19:50:26.525Z,7.23
2023-04-26T19:52:54.903Z,7.23
2023-04-26T19:55:23.627Z,7.21
2023-04-26T19:57:52.388Z,7.17
2023-04-26T20:00:20.884Z,7.13
2023-04-26T20:02:49.998Z,7.10
2023-04-26T20:05:18.577Z,7.13
2023-04-26T20:07:46.948Z,7.11
2023-04-26T20:10:15.867Z,7.12
2023-04-26T20:12:44.439Z,7.12
2023-04-26T20:15:15.192Z,7.14
2023-04-26T20:17:44.400Z,7.16
2023-04-26T20:20:12.887Z,7.17
2023-04-26T20:22:41.910Z,7.14
2023-04-26T20:25:10.857Z,7.16
2023-04-26T20:27:39.344Z,7.16
2023-04-26T20:30:09.307Z,7.15
2023-04-26T20:32:37.823Z,7.17
2023-04-26T20:35:07.181Z,7.17
2023-04-26T20:37:36.161Z,7.18
2023-04-26T20:40:05.218Z,7.15
2023-04-26T20:42:33.546Z,7.15
2023-04-26T20:45:03.941Z,7.16
2023-04-26T20:47:32.689Z,7.13
2023-04-26T20:50:01.357Z,7.13
2023-04-26T20:52:29.535Z,7.09
2023-04-26T20:54:57.959Z,7.03
2023-04-26T20:57:26.523Z,7.04
2023-04-26T20:59:54.894Z,7.02
2023-04-26T21:02:23.405Z,7.02
2023-04-26T21:04:52.344Z,6.98
2023-04-26T21:07:20.864Z,6.91
2023-04-26T21:09:51.805Z,6.87
2023-04-26T21:12:21.593Z,6.85
2023-04-26T21:14:50.418Z,6.84
2023-04-26T21:17:19.054Z,6.83
2023-04-26T21:19:47.601Z,6.83
2023-04-26T21:22:16.107Z,6.80
2023-04-26T21:24:44.469Z,6.80
2023-04-26T21:27:12.648Z,6.81
2023-04-26T21:29:41.365Z,6.79
2023-04-26T21:32:09.754Z,6.79
2023-04-26T21:34:38.214Z,6.77
2023-04-26T21:37:06.922Z,6.74
2023-04-26T21:39:35.497Z,6.72
2023-04-26T21:42:03.890Z,6.70
2023-04-26T21:44:32.368Z,6.67
2023-04-26T21:47:01.304Z,6.64
2023-04-26T21:49:29.953Z,6.63
2023-04-26T21:51:58.232Z,6.60
2023-04-26T21:54:26.512Z,6.58
2023-04-26T21:56:54.697Z,6.56
2023-04-26T21:59:23.080Z,6.54
2023-04-26T22:01:51.253Z,6.52
2023-04-26T22:04:19.753Z,6.51
2023-04-26T22:06:48.337Z,6.51
2023-04-26T22:09:17.086Z,6.47
2023-04-26T22:11:45.821Z,6.44
2023-04-26T22:14:14.304Z,6.41
2023-04-26T22:16:43.238Z,6.39
2023-04-26T22:19:11.956Z,6.38
2023-04-26T22:21:40.901Z,6.40
2023-04-26T22:24:09.282Z,6.40
2023-04-26T22:26:37.459Z,6.41
2023-04-26T22:29:05.849Z,6.42
2023-04-26T22:31:34.785Z,6.46
2023-04-26T22:34:03.223Z,6.49
2023-04-26T22:36:31.608Z,6.52
2023-04-26T22:38:59.791Z,6.56
2023-04-26T22:41:27.972Z,6.60
2023-04-26T22:43:57.105Z,6.61
2023-04-26T22:46:26.008Z,6.63
2023-04-26T22:48:54.663Z,6.64
2023-04-26T22:51:23.144Z,6.63
2023-04-26T22:53:51.534Z,6.65
2023-04-26T22:56:20.016Z,6.67
2023-04-26T22:58:48.707Z,6.69
2023-04-26T23:01:17.138Z,6.71
2023-04-26T23:03:45.391Z,6.70
2023-04-26T23:06:13.657Z,6.68
2023-04-26T23:08:42.041Z,6.67
2023-04-26T23:11:10.834Z,6.66
2023-04-26T23:13:39.321Z,6.65
2023-04-26T23:16:08.735Z,6.67
2023-04-26T23:18:37.426Z,6.68
2023-04-26T23:21:05.805Z,6.70
2023-04-26T23:23:34.195Z,6.71
2023-04-26T23:26:08.156Z,6.71
2023-04-26T23:28:36.995Z,6.70
2023-04-26T23:31:06.520Z,6.68
2023-04-26T23:33:34.995Z,6.66
2023-04-26T23:36:03.420Z,6.62
2023-04-26T23:38:31.769Z,6.56
2023-04-26T23:40:59.940Z,6.50
2023-04-26T23:43:28.327Z,6.47
2023-04-26T23:45:57.253Z,6.46
2023-04-26T23:48:26.126Z,6.43
2023-04-26T23:50:54.403Z,6.39
2023-04-26T23:53:22.683Z,6.37
2023-04-26T23:55:51.375Z,6.34
2023-04-26T23:58:19.557Z,6.31
